sensor_id;sensor_type;location;lat;lon;timestamp;temperature;humidity
13713;DHT22;6928;50.546;7.120;2023-03-14T00:02:17;12.28;73.49
13713;DHT22;6928;50.546;7.120;2023-03-14T00:04:44;12.28;73.58
13713;DHT22;6928;50.546;7.120;2023-03-14T00:07:11;12.32;73.55
13713;DHT22;6928;50.546;7.120;2023-03-14T00:09:38;12.29;74.08
13713;DHT22;6928;50.546;7.120;2023-03-14T00:12:06;12.24;75.06
13713;DHT22;6928;50.546;7.120;2023-03-14T00:14:33;12.18;75.79
13713;DHT22;6928;50.546;7.120;2023-03-14T00:17:00;12.11;76.15
13713;DHT22;6928;50.546;7.120;2023-03-14T00:19:28;12.14;76.12
13713;DHT22;6928;50.546;7.120;2023-03-14T00:21:55;12.15;76.07
13713;DHT22;6928;50.546;7.120;2023-03-14T00:24:22;12.18;75.79
13713;DHT22;6928;50.546;7.120;2023-03-14T00:26:49;12.14;75.57
13713;DHT22;6928;50.546;7.120;2023-03-14T00:29:15;12.08;75.59
13713;DHT22;6928;50.546;7.120;2023-03-14T00:31:42;12.13;75.46
13713;DHT22;6928;50.546;7.120;2023-03-14T00:34:09;12.14;75.17
13713;DHT22;6928;50.546;7.120;2023-03-14T00:36:37;12.11;75.11
13713;DHT22;6928;50.546;7.120;2023-03-14T00:39:04;12.18;74.41
13713;DHT22;6928;50.546;7.120;2023-03-14T00:41:30;12.20;74.49
13713;DHT22;6928;50.546;7.120;2023-03-14T00:43:57;12.07;75.18
13713;DHT22;6928;50.546;7.120;2023-03-14T00:46:24;12.04;75.33
13713;DHT22;6928;50.546;7.120;2023-03-14T00:48:51;11.98;75.68
13713;DHT22;6928;50.546;7.120;2023-03-14T00:51:17;11.97;75.75
13713;DHT22;6928;50.546;7.120;2023-03-14T00:53:45;11.97;75.84
13713;DHT22;6928;50.546;7.120;2023-03-14T00:56:13;11.94;75.97
13713;DHT22;6928;50.546;7.120;2023-03-14T00:58:40;11.94;75.94
13713;DHT22;6928;50.546;7.120;2023-03-14T01:01:09;11.91;75.95
13713;DHT22;6928;50.546;7.120;2023-03-14T01:03:36;11.93;75.75
13713;DHT22;6928;50.546;7.120;2023-03-14T01:06:12;11.93;75.74
13713;DHT22;6928;50.546;7.120;2023-03-14T01:08:40;11.94;75.40
13713;DHT22;6928;50.546;7.120;2023-03-14T01:11:11;11.93;75.21
13713;DHT22;6928;50.546;7.120;2023-03-14T01:13:39;11.97;75.25
13713;DHT22;6928;50.546;7.120;2023-03-14T01:16:08;11.94;75.23
13713;DHT22;6928;50.546;7.120;2023-03-14T01:18:37;11.88;75.40
13713;DHT22;6928;50.546;7.120;2023-03-14T01:21:10;11.93;75.21
13713;DHT22;6928;50.546;7.120;2023-03-14T01:23:37;11.83;75.37
13713;DHT22;6928;50.546;7.120;2023-03-14T01:26:05;11.93;74.64
13713;DHT22;6928;50.546;7.120;2023-03-14T01:28:36;11.95;74.41
13713;DHT22;6928;50.546;7.120;2023-03-14T01:31:03;11.95;74.18
13713;DHT22;6928;50.546;7.120;2023-03-14T01:33:30;11.99;74.27
13713;DHT22;6928;50.546;7.120;2023-03-14T01:35:57;12.04;74.04
13713;DHT22;6928;50.546;7.120;2023-03-14T01:38:24;12.02;74.31
13713;DHT22;6928;50.546;7.120;2023-03-14T01:40:51;11.99;74.48
13713;DHT22;6928;50.546;7.120;2023-03-14T01:43:19;11.98;74.68
13713;DHT22;6928;50.546;7.120;2023-03-14T01:46:21;11.91;75.63
13713;DHT22;6928;50.546;7.120;2023-03-14T01:48:59;11.93;75.86
13713;DHT22;6928;50.546;7.120;2023-03-14T01:51:33;11.84;76.35
13713;DHT22;6928;50.546;7.120;2023-03-14T01:54:07;11.88;76.09
13713;DHT22;6928;50.546;7.120;2023-03-14T01:56:36;11.84;76.16
13713;DHT22;6928;50.546;7.120;2023-03-14T01:59:07;11.84;76.13
13713;DHT22;6928;50.546;7.120;2023-03-14T02:01:36;11.81;76.06
13713;DHT22;6928;50.546;7.120;2023-03-14T02:04:05;11.83;75.75
13713;DHT22;6928;50.546;7.120;2023-03-14T02:06:41;11.84;75.52
13713;DHT22;6928;50.546;7.120;2023-03-14T02:09:08;11.84;75.56
13713;DHT22;6928;50.546;7.120;2023-03-14T02:11:36;11.86;75.09
13713;DHT22;6928;50.546;7.120;2023-03-14T02:14:03;11.88;75.00
13713;DHT22;6928;50.546;7.120;2023-03-14T02:16:31;11.87;74.70
13713;DHT22;6928;50.546;7.120;2023-03-14T02:18:59;11.83;74.67
13713;DHT22;6928;50.546;7.120;2023-03-14T02:21:38;11.87;74.33
13713;DHT22;6928;50.546;7.120;2023-03-14T02:24:15;11.88;73.72
13713;DHT22;6928;50.546;7.120;2023-03-14T02:27:03;11.90;74.15
13713;DHT22;6928;50.546;7.120;2023-03-14T02:29:31;11.93;73.26
13713;DHT22;6928;50.546;7.120;2023-03-14T02:32:00;11.88;73.78
13713;DHT22;6928;50.546;7.120;2023-03-14T02:34:27;11.80;74.10
13713;DHT22;6928;50.546;7.120;2023-03-14T02:36:54;11.81;73.78
13713;DHT22;6928;50.546;7.120;2023-03-14T02:39:26;11.80;73.59
13713;DHT22;6928;50.546;7.120;2023-03-14T02:41:54;11.78;73.42
13713;DHT22;6928;50.546;7.120;2023-03-14T02:44:22;11.74;73.79
13713;DHT22;6928;50.546;7.120;2023-03-14T02:46:49;11.70;73.58
13713;DHT22;6928;50.546;7.120;2023-03-14T02:49:16;11.69;73.56
13713;DHT22;6928;50.546;7.120;2023-03-14T02:51:45;11.74;73.07
13713;DHT22;6928;50.546;7.120;2023-03-14T02:54:13;11.67;73.59
13713;DHT22;6928;50.546;7.120;2023-03-14T02:56:40;11.53;74.11
13713;DHT22;6928;50.546;7.120;2023-03-14T02:59:07;11.53;74.12
13713;DHT22;6928;50.546;7.120;2023-03-14T03:01:35;11.50;74.28
13713;DHT22;6928;50.546;7.120;2023-03-14T03:04:03;11.47;74.50
13713;DHT22;6928;50.546;7.120;2023-03-14T03:06:29;11.45;74.80
13713;DHT22;6928;50.546;7.120;2023-03-14T03:08:56;11.34;75.03
13713;DHT22;6928;50.546;7.120;2023-03-14T03:11:23;11.42;74.59
13713;DHT22;6928;50.546;7.120;2023-03-14T03:13:50;11.45;74.70
13713;DHT22;6928;50.546;7.120;2023-03-14T03:16:17;11.42;74.64
13713;DHT22;6928;50.546;7.120;2023-03-14T03:18:45;11.47;74.49
13713;DHT22;6928;50.546;7.120;2023-03-14T03:21:12;11.47;74.54
13713;DHT22;6928;50.546;7.120;2023-03-14T03:23:39;11.38;74.88
13713;DHT22;6928;50.546;7.120;2023-03-14T03:26:06;11.35;75.03
13713;DHT22;6928;50.546;7.120;2023-03-14T03:28:33;11.46;74.72
13713;DHT22;6928;50.546;7.120;2023-03-14T03:31:08;11.36;75.04
13713;DHT22;6928;50.546;7.120;2023-03-14T03:33:36;11.42;74.84
13713;DHT22;6928;50.546;7.120;2023-03-14T03:36:05;11.39;75.08
13713;DHT22;6928;50.546;7.120;2023-03-14T03:38:32;11.39;75.23
13713;DHT22;6928;50.546;7.120;2023-03-14T03:41:02;11.34;75.42
13713;DHT22;6928;50.546;7.120;2023-03-14T03:43:30;11.36;75.38
13713;DHT22;6928;50.546;7.120;2023-03-14T03:45:56;11.28;75.70
13713;DHT22;6928;50.546;7.120;2023-03-14T03:48:23;11.30;75.79
13713;DHT22;6928;50.546;7.120;2023-03-14T03:50:50;11.39;75.54
13713;DHT22;6928;50.546;7.120;2023-03-14T03:53:19;11.38;75.61
13713;DHT22;6928;50.546;7.120;2023-03-14T03:55:45;11.25;76.11
13713;DHT22;6928;50.546;7.120;2023-03-14T03:58:12;11.38;75.59
13713;DHT22;6928;50.546;7.120;2023-03-14T04:00:39;11.40;75.37
13713;DHT22;6928;50.546;7.120;2023-03-14T04:03:06;11.34;75.69
13713;DHT22;6928;50.546;7.120;2023-03-14T04:05:33;11.36;75.49
13713;DHT22;6928;50.546;7.120;2023-03-14T04:08:00;11.38;75.40
13713;DHT22;6928;50.546;7.120;2023-03-14T04:10:29;11.42;75.08
13713;DHT22;6928;50.546;7.120;2023-03-14T04:12:56;11.43;74.97
13713;DHT22;6928;50.546;7.120;2023-03-14T04:15:22;11.52;74.48
13713;DHT22;6928;50.546;7.120;2023-03-14T04:17:49;11.52;74.59
13713;DHT22;6928;50.546;7.120;2023-03-14T04:20:16;11.52;74.61
13713;DHT22;6928;50.546;7.120;2023-03-14T04:22:43;11.56;74.30
13713;DHT22;6928;50.546;7.120;2023-03-14T04:25:10;11.53;74.63
13713;DHT22;6928;50.546;7.120;2023-03-14T04:27:38;11.47;75.02
13713;DHT22;6928;50.546;7.120;2023-03-14T04:30:06;11.43;75.16
13713;DHT22;6928;50.546;7.120;2023-03-14T04:32:33;11.43;75.30
13713;DHT22;6928;50.546;7.120;2023-03-14T04:35:00;11.40;75.45
13713;DHT22;6928;50.546;7.120;2023-03-14T04:37:27;11.45;75.48
13713;DHT22;6928;50.546;7.120;2023-03-14T04:39:53;11.42;75.63
13713;DHT22;6928;50.546;7.120;2023-03-14T04:42:20;11.30;76.06
13713;DHT22;6928;50.546;7.120;2023-03-14T04:44:48;11.34;76.04
13713;DHT22;6928;50.546;7.120;2023-03-14T04:47:15;11.28;76.35
13713;DHT22;6928;50.546;7.120;2023-03-14T04:49:42;11.29;77.22
13713;DHT22;6928;50.546;7.120;2023-03-14T04:52:09;11.15;78.66
13713;DHT22;6928;50.546;7.120;2023-03-14T04:54:36;11.05;79.77
13713;DHT22;6928;50.546;7.120;2023-03-14T04:57:03;10.91;80.68
13713;DHT22;6928;50.546;7.120;2023-03-14T04:59:29;10.70;83.04
13713;DHT22;6928;50.546;7.120;2023-03-14T05:01:57;10.63;83.35
13713;DHT22;6928;50.546;7.120;2023-03-14T05:04:24;10.57;83.50
13713;DHT22;6928;50.546;7.120;2023-03-14T05:06:52;10.49;84.04
13713;DHT22;6928;50.546;7.120;2023-03-14T05:09:18;10.44;84.32
13713;DHT22;6928;50.546;7.120;2023-03-14T05:11:45;10.43;84.00
13713;DHT22;6928;50.546;7.120;2023-03-14T05:14:15;10.39;83.84
13713;DHT22;6928;50.546;7.120;2023-03-14T05:16:42;10.43;83.45
13713;DHT22;6928;50.546;7.120;2023-03-14T05:19:10;10.29;83.90
13713;DHT22;6928;50.546;7.120;2023-03-14T05:21:37;10.22;84.50
13713;DHT22;6928;50.546;7.120;2023-03-14T05:24:04;10.18;83.83
13713;DHT22;6928;50.546;7.120;2023-03-14T05:26:31;10.19;83.91
13713;DHT22;6928;50.546;7.120;2023-03-14T05:28:58;10.23;83.08
13713;DHT22;6928;50.546;7.120;2023-03-14T05:31:25;10.18;83.22
13713;DHT22;6928;50.546;7.120;2023-03-14T05:33:51;10.16;83.36
13713;DHT22;6928;50.546;7.120;2023-03-14T05:36:19;10.12;83.50
13713;DHT22;6928;50.546;7.120;2023-03-14T05:38:46;10.16;83.28
13713;DHT22;6928;50.546;7.120;2023-03-14T05:41:13;10.12;83.33
13713;DHT22;6928;50.546;7.120;2023-03-14T05:43:39;10.01;83.67
13713;DHT22;6928;50.546;7.120;2023-03-14T05:46:06;10.08;83.04
13713;DHT22;6928;50.546;7.120;2023-03-14T05:48:33;10.19;82.65
13713;DHT22;6928;50.546;7.120;2023-03-14T05:51:00;10.13;83.13
13713;DHT22;6928;50.546;7.120;2023-03-14T05:53:28;10.20;83.04
13713;DHT22;6928;50.546;7.120;2023-03-14T05:55:56;10.20;82.92
13713;DHT22;6928;50.546;7.120;2023-03-14T05:58:23;10.16;83.77
13713;DHT22;6928;50.546;7.120;2023-03-14T06:00:50;10.19;84.40
13713;DHT22;6928;50.546;7.120;2023-03-14T06:03:17;10.19;84.80
13713;DHT22;6928;50.546;7.120;2023-03-14T06:05:44;10.09;85.82
13713;DHT22;6928;50.546;7.120;2023-03-14T06:08:11;9.88;87.02
13713;DHT22;6928;50.546;7.120;2023-03-14T06:10:39;9.94;86.19
13713;DHT22;6928;50.546;7.120;2023-03-14T06:13:07;10.03;85.23
13713;DHT22;6928;50.546;7.120;2023-03-14T06:15:33;10.02;85.15
13713;DHT22;6928;50.546;7.120;2023-03-14T06:18:01;9.99;85.35
13713;DHT22;6928;50.546;7.120;2023-03-14T06:20:28;9.97;85.13
13713;DHT22;6928;50.546;7.120;2023-03-14T06:22:54;10.03;84.44
13713;DHT22;6928;50.546;7.120;2023-03-14T06:25:21;9.95;84.95
13713;DHT22;6928;50.546;7.120;2023-03-14T06:27:49;9.98;84.31
13713;DHT22;6928;50.546;7.120;2023-03-14T06:30:17;9.99;84.37
13713;DHT22;6928;50.546;7.120;2023-03-14T06:32:44;9.97;84.42
13713;DHT22;6928;50.546;7.120;2023-03-14T06:35:10;9.92;84.78
13713;DHT22;6928;50.546;7.120;2023-03-14T06:37:38;9.99;84.61
13713;DHT22;6928;50.546;7.120;2023-03-14T06:40:06;10.08;84.43
13713;DHT22;6928;50.546;7.120;2023-03-14T06:42:34;10.20;84.07
13713;DHT22;6928;50.546;7.120;2023-03-14T06:45:04;10.34;83.32
13713;DHT22;6928;50.546;7.120;2023-03-14T06:47:31;10.57;82.57
13713;DHT22;6928;50.546;7.120;2023-03-14T06:49:58;10.71;82.89
13713;DHT22;6928;50.546;7.120;2023-03-14T06:52:25;10.83;82.45
13713;DHT22;6928;50.546;7.120;2023-03-14T06:54:52;10.77;81.94
13713;DHT22;6928;50.546;7.120;2023-03-14T06:57:18;10.98;81.89
13713;DHT22;6928;50.546;7.120;2023-03-14T06:59:45;11.11;80.97
13713;DHT22;6928;50.546;7.120;2023-03-14T07:02:14;11.14;80.74
13713;DHT22;6928;50.546;7.120;2023-03-14T07:04:43;11.19;80.15
13713;DHT22;6928;50.546;7.120;2023-03-14T07:07:10;11.40;80.10
13713;DHT22;6928;50.546;7.120;2023-03-14T07:09:37;11.39;79.80
13713;DHT22;6928;50.546;7.120;2023-03-14T07:12:05;11.52;79.83
13713;DHT22;6928;50.546;7.120;2023-03-14T07:14:32;11.55;79.42
13713;DHT22;6928;50.546;7.120;2023-03-14T07:16:59;11.73;79.00
13713;DHT22;6928;50.546;7.120;2023-03-14T07:19:27;11.63;78.72
13713;DHT22;6928;50.546;7.120;2023-03-14T07:21:54;11.74;79.31
13713;DHT22;6928;50.546;7.120;2023-03-14T07:24:23;11.62;79.45
13713;DHT22;6928;50.546;7.120;2023-03-14T07:26:53;11.55;79.34
13713;DHT22;6928;50.546;7.120;2023-03-14T07:29:21;11.50;79.91
13713;DHT22;6928;50.546;7.120;2023-03-14T07:31:48;11.47;79.97
13713;DHT22;6928;50.546;7.120;2023-03-14T07:34:15;11.50;79.45
13713;DHT22;6928;50.546;7.120;2023-03-14T07:36:43;11.40;79.58
13713;DHT22;6928;50.546;7.120;2023-03-14T07:39:10;11.46;79.80
13713;DHT22;6928;50.546;7.120;2023-03-14T07:41:37;11.43;80.01
13713;DHT22;6928;50.546;7.120;2023-03-14T07:44:04;11.56;79.28
13713;DHT22;6928;50.546;7.120;2023-03-14T07:46:31;11.67;79.44
13713;DHT22;6928;50.546;7.120;2023-03-14T07:48:58;11.66;78.98
13713;DHT22;6928;50.546;7.120;2023-03-14T07:51:25;11.90;78.93
13713;DHT22;6928;50.546;7.120;2023-03-14T07:53:53;11.97;78.98
13713;DHT22;6928;50.546;7.120;2023-03-14T07:56:20;11.91;78.37
13713;DHT22;6928;50.546;7.120;2023-03-14T07:58:47;12.04;78.73
13713;DHT22;6928;50.546;7.120;2023-03-14T08:01:14;11.94;78.65
13713;DHT22;6928;50.546;7.120;2023-03-14T08:03:41;11.99;78.81
13713;DHT22;6928;50.546;7.120;2023-03-14T08:06:08;11.95;79.27
13713;DHT22;6928;50.546;7.120;2023-03-14T08:08:35;12.07;78.97
13713;DHT22;6928;50.546;7.120;2023-03-14T08:11:05;12.17;78.69
13713;DHT22;6928;50.546;7.120;2023-03-14T08:13:34;12.14;78.95
13713;DHT22;6928;50.546;7.120;2023-03-14T08:16:01;12.13;78.55
13713;DHT22;6928;50.546;7.120;2023-03-14T08:18:28;12.27;78.78
13713;DHT22;6928;50.546;7.120;2023-03-14T08:20:55;12.36;78.63
13713;DHT22;6928;50.546;7.120;2023-03-14T08:23:22;12.35;78.09
13713;DHT22;6928;50.546;7.120;2023-03-14T08:25:49;12.34;78.11
13713;DHT22;6928;50.546;7.120;2023-03-14T08:28:18;12.28;78.61
13713;DHT22;6928;50.546;7.120;2023-03-14T08:30:45;12.11;78.78
13713;DHT22;6928;50.546;7.120;2023-03-14T08:33:12;12.08;78.49
13713;DHT22;6928;50.546;7.120;2023-03-14T08:35:39;12.11;78.91
13713;DHT22;6928;50.546;7.120;2023-03-14T08:38:06;12.13;79.07
13713;DHT22;6928;50.546;7.120;2023-03-14T08:40:32;12.08;78.67
13713;DHT22;6928;50.546;7.120;2023-03-14T08:42:59;12.04;78.75
13713;DHT22;6928;50.546;7.120;2023-03-14T08:45:27;12.02;78.84
13713;DHT22;6928;50.546;7.120;2023-03-14T08:47:54;12.08;78.93
13713;DHT22;6928;50.546;7.120;2023-03-14T08:50:21;12.02;78.99
13713;DHT22;6928;50.546;7.120;2023-03-14T08:52:48;11.97;79.44
13713;DHT22;6928;50.546;7.120;2023-03-14T08:55:15;11.94;80.82
13713;DHT22;6928;50.546;7.120;2023-03-14T08:57:42;11.84;81.70
13713;DHT22;6928;50.546;7.120;2023-03-14T09:00:11;11.71;82.59
13713;DHT22;6928;50.546;7.120;2023-03-14T09:02:42;11.63;83.34
13713;DHT22;6928;50.546;7.120;2023-03-14T09:05:10;11.71;83.26
13713;DHT22;6928;50.546;7.120;2023-03-14T09:07:37;11.80;82.23
13713;DHT22;6928;50.546;7.120;2023-03-14T09:10:05;11.90;82.18
13713;DHT22;6928;50.546;7.120;2023-03-14T09:12:32;11.99;80.43
13713;DHT22;6928;50.546;7.120;2023-03-14T09:14:59;12.09;80.68
13713;DHT22;6928;50.546;7.120;2023-03-14T09:17:26;12.08;79.96
13713;DHT22;6928;50.546;7.120;2023-03-14T09:19:54;12.15;79.91
13713;DHT22;6928;50.546;7.120;2023-03-14T09:22:21;12.17;80.00
13713;DHT22;6928;50.546;7.120;2023-03-14T09:24:48;12.24;80.25
13713;DHT22;6928;50.546;7.120;2023-03-14T09:27:15;12.25;81.18
13713;DHT22;6928;50.546;7.120;2023-03-14T09:29:41;12.32;80.44
13713;DHT22;6928;50.546;7.120;2023-03-14T09:32:08;12.34;79.53
13713;DHT22;6928;50.546;7.120;2023-03-14T09:34:35;12.46;80.49
13713;DHT22;6928;50.546;7.120;2023-03-14T09:37:04;12.41;79.79
13713;DHT22;6928;50.546;7.120;2023-03-14T09:39:31;12.41;80.07
13713;DHT22;6928;50.546;7.120;2023-03-14T09:41:59;12.27;80.18
13713;DHT22;6928;50.546;7.120;2023-03-14T09:44:30;12.11;81.77
13713;DHT22;6928;50.546;7.120;2023-03-14T09:47:02;12.07;83.48
13713;DHT22;6928;50.546;7.120;2023-03-14T09:49:33;11.86;83.36
13713;DHT22;6928;50.546;7.120;2023-03-14T09:52:07;11.81;83.86
13713;DHT22;6928;50.546;7.120;2023-03-14T09:54:42;11.71;84.10
13713;DHT22;6928;50.546;7.120;2023-03-14T09:57:13;11.65;84.56
13713;DHT22;6928;50.546;7.120;2023-03-14T09:59:43;11.63;84.68
13713;DHT22;6928;50.546;7.120;2023-03-14T10:02:18;11.57;84.10
13713;DHT22;6928;50.546;7.120;2023-03-14T10:04:46;11.50;85.13
13713;DHT22;6928;50.546;7.120;2023-03-14T10:07:18;11.34;85.95
13713;DHT22;6928;50.546;7.120;2023-03-14T10:09:49;10.47;83.30
13713;DHT22;6928;50.546;7.120;2023-03-14T10:12:17;10.50;84.77
13713;DHT22;6928;50.546;7.120;2023-03-14T10:14:48;10.19;84.97
13713;DHT22;6928;50.546;7.120;2023-03-14T10:17:18;9.82;84.83
13713;DHT22;6928;50.546;7.120;2023-03-14T10:19:54;9.72;84.62
13713;DHT22;6928;50.546;7.120;2023-03-14T10:22:26;9.57;84.67
13713;DHT22;6928;50.546;7.120;2023-03-14T10:25:03;9.52;84.34
13713;DHT22;6928;50.546;7.120;2023-03-14T10:27:35;9.18;83.02
13713;DHT22;6928;50.546;7.120;2023-03-14T10:30:06;9.15;84.25
13713;DHT22;6928;50.546;7.120;2023-03-14T10:32:37;9.15;84.03
13713;DHT22;6928;50.546;7.120;2023-03-14T10:35:18;9.12;84.69
13713;DHT22;6928;50.546;7.120;2023-03-14T10:37:57;9.16;84.87
13713;DHT22;6928;50.546;7.120;2023-03-14T10:40:28;9.13;84.62
13713;DHT22;6928;50.546;7.120;2023-03-14T10:42:58;9.26;84.84
13713;DHT22;6928;50.546;7.120;2023-03-14T10:45:33;9.23;84.83
13713;DHT22;6928;50.546;7.120;2023-03-14T10:48:18;8.99;84.39
13713;DHT22;6928;50.546;7.120;2023-03-14T10:50:54;8.99;85.11
13713;DHT22;6928;50.546;7.120;2023-03-14T10:53:25;8.93;84.61
13713;DHT22;6928;50.546;7.120;2023-03-14T10:55:52;8.87;84.65
13713;DHT22;6928;50.546;7.120;2023-03-14T10:58:24;8.76;84.38
13713;DHT22;6928;50.546;7.120;2023-03-14T11:01:02;8.62;84.24
13713;DHT22;6928;50.546;7.120;2023-03-14T11:03:32;8.68;84.79
13713;DHT22;6928;50.546;7.120;2023-03-14T11:06:06;8.72;84.26
13713;DHT22;6928;50.546;7.120;2023-03-14T11:08:44;8.81;83.69
13713;DHT22;6928;50.546;7.120;2023-03-14T11:11:18;8.75;82.85
13713;DHT22;6928;50.546;7.120;2023-03-14T11:14:00;8.81;83.25
13713;DHT22;6928;50.546;7.120;2023-03-14T11:16:36;8.89;83.08
13713;DHT22;6928;50.546;7.120;2023-03-14T11:22:21;9.06;82.82
13713;DHT22;6928;50.546;7.120;2023-03-14T11:25:13;9.16;82.71
13713;DHT22;6928;50.546;7.120;2023-03-14T11:27:46;9.24;82.36
13713;DHT22;6928;50.546;7.120;2023-03-14T11:30:20;9.20;81.93
13713;DHT22;6928;50.546;7.120;2023-03-14T11:32:57;9.19;81.56
13713;DHT22;6928;50.546;7.120;2023-03-14T11:35:32;9.10;81.96
13713;DHT22;6928;50.546;7.120;2023-03-14T11:38:10;9.06;81.20
13713;DHT22;6928;50.546;7.120;2023-03-14T11:40:39;9.08;81.21
13713;DHT22;6928;50.546;7.120;2023-03-14T11:43:13;9.65;81.65
13713;DHT22;6928;50.546;7.120;2023-03-14T11:45:43;10.01;80.69
13713;DHT22;6928;50.546;7.120;2023-03-14T11:48:28;9.67;79.04
13713;DHT22;6928;50.546;7.120;2023-03-14T11:51:00;9.70;79.43
13713;DHT22;6928;50.546;7.120;2023-03-14T11:53:41;9.62;78.31
13713;DHT22;6928;50.546;7.120;2023-03-14T11:56:16;9.61;78.29
13713;DHT22;6928;50.546;7.120;2023-03-14T11:58:54;9.65;79.23
13713;DHT22;6928;50.546;7.120;2023-03-14T12:01:32;9.50;79.88
13713;DHT22;6928;50.546;7.120;2023-03-14T12:04:05;9.37;80.98
13713;DHT22;6928;50.546;7.120;2023-03-14T12:06:40;9.16;81.92
13713;DHT22;6928;50.546;7.120;2023-03-14T12:09:11;9.15;82.65
13713;DHT22;6928;50.546;7.120;2023-03-14T12:11:43;9.06;81.75
13713;DHT22;6928;50.546;7.120;2023-03-14T12:14:23;9.20;81.75
13713;DHT22;6928;50.546;7.120;2023-03-14T12:16:54;8.89;79.10
13713;DHT22;6928;50.546;7.120;2023-03-14T12:19:34;9.05;79.91
13713;DHT22;6928;50.546;7.120;2023-03-14T12:22:28;9.06;79.22
13713;DHT22;6928;50.546;7.120;2023-03-14T12:25:02;9.26;78.87
13713;DHT22;6928;50.546;7.120;2023-03-14T12:30:55;9.37;78.35
13713;DHT22;6928;50.546;7.120;2023-03-14T12:33:30;9.50;78.35
13713;DHT22;6928;50.546;7.120;2023-03-14T12:36:01;9.40;77.35
13713;DHT22;6928;50.546;7.120;2023-03-14T12:38:43;9.43;77.75
13713;DHT22;6928;50.546;7.120;2023-03-14T12:41:17;9.54;78.05
13713;DHT22;6928;50.546;7.120;2023-03-14T12:43:46;9.22;77.04
13713;DHT22;6928;50.546;7.120;2023-03-14T12:46:23;7.34;81.44
13713;DHT22;6928;50.546;7.120;2023-03-14T12:48:55;6.72;83.93
13713;DHT22;6928;50.546;7.120;2023-03-14T12:51:35;6.97;85.28
13713;DHT22;6928;50.546;7.120;2023-03-14T12:54:26;7.04;86.01
13713;DHT22;6928;50.546;7.120;2023-03-14T12:57:09;6.58;85.96
13713;DHT22;6928;50.546;7.120;2023-03-14T12:59:38;6.72;87.12
13713;DHT22;6928;50.546;7.120;2023-03-14T13:02:25;6.67;87.37
13713;DHT22;6928;50.546;7.120;2023-03-14T13:05:02;6.69;87.17
13713;DHT22;6928;50.546;7.120;2023-03-14T13:10:21;6.72;87.50
13713;DHT22;6928;50.546;7.120;2023-03-14T13:12:52;6.69;86.67
13713;DHT22;6928;50.546;7.120;2023-03-14T13:15:27;6.72;86.94
13713;DHT22;6928;50.546;7.120;2023-03-14T13:18:03;6.82;87.69
13713;DHT22;6928;50.546;7.120;2023-03-14T13:20:38;6.85;87.18
13713;DHT22;6928;50.546;7.120;2023-03-14T13:23:41;6.89;87.29
13713;DHT22;6928;50.546;7.120;2023-03-14T13:26:14;6.96;87.52
13713;DHT22;6928;50.546;7.120;2023-03-14T13:28:41;6.90;86.81
13713;DHT22;6928;50.546;7.120;2023-03-14T13:31:21;7.01;87.68
13713;DHT22;6928;50.546;7.120;2023-03-14T13:33:59;6.93;87.08
13713;DHT22;6928;50.546;7.120;2023-03-14T13:36:26;6.86;86.96
13713;DHT22;6928;50.546;7.120;2023-03-14T13:38:57;6.82;86.48
13713;DHT22;6928;50.546;7.120;2023-03-14T13:41:25;6.90;86.49
13713;DHT22;6928;50.546;7.120;2023-03-14T13:44:01;7.00;86.71
13713;DHT22;6928;50.546;7.120;2023-03-14T13:46:29;7.09;86.70
13713;DHT22;6928;50.546;7.120;2023-03-14T13:49:01;7.00;86.42
13713;DHT22;6928;50.546;7.120;2023-03-14T13:51:29;7.11;86.22
13713;DHT22;6928;50.546;7.120;2023-03-14T13:53:59;7.10;85.89
13713;DHT22;6928;50.546;7.120;2023-03-14T13:56:31;7.20;86.01
13713;DHT22;6928;50.546;7.120;2023-03-14T13:58:58;7.37;86.07
13713;DHT22;6928;50.546;7.120;2023-03-14T14:01:27;7.40;85.87
13713;DHT22;6928;50.546;7.120;2023-03-14T14:04:05;7.27;85.54
13713;DHT22;6928;50.546;7.120;2023-03-14T14:06:35;7.27;84.95
13713;DHT22;6928;50.546;7.120;2023-03-14T14:09:10;7.16;84.32
13713;DHT22;6928;50.546;7.120;2023-03-14T14:11:42;7.34;85.22
13713;DHT22;6928;50.546;7.120;2023-03-14T14:14:14;7.31;84.76
13713;DHT22;6928;50.546;7.120;2023-03-14T14:16:43;7.32;85.30
13713;DHT22;6928;50.546;7.120;2023-03-14T14:19:13;7.32;84.72
13713;DHT22;6928;50.546;7.120;2023-03-14T14:21:41;7.30;85.32
13713;DHT22;6928;50.546;7.120;2023-03-14T14:24:09;7.21;85.90
13713;DHT22;6928;50.546;7.120;2023-03-14T14:26:40;7.20;86.29
13713;DHT22;6928;50.546;7.120;2023-03-14T14:29:25;7.16;87.13
13713;DHT22;6928;50.546;7.120;2023-03-14T14:32:01;6.88;86.52
13713;DHT22;6928;50.546;7.120;2023-03-14T14:34:38;6.88;86.21
13713;DHT22;6928;50.546;7.120;2023-03-14T14:37:20;6.89;85.84
13713;DHT22;6928;50.546;7.120;2023-03-14T14:39:48;6.79;85.34
13713;DHT22;6928;50.546;7.120;2023-03-14T14:42:19;6.73;85.69
13713;DHT22;6928;50.546;7.120;2023-03-14T14:44:49;6.73;85.85
13713;DHT22;6928;50.546;7.120;2023-03-14T14:47:20;6.68;86.45
13713;DHT22;6928;50.546;7.120;2023-03-14T14:49:51;5.73;86.21
13713;DHT22;6928;50.546;7.120;2023-03-14T14:52:20;5.00;87.78
13713;DHT22;6928;50.546;7.120;2023-03-14T14:54:51;4.90;88.64
13713;DHT22;6928;50.546;7.120;2023-03-14T14:57:23;4.82;88.39
13713;DHT22;6928;50.546;7.120;2023-03-14T14:59:51;4.52;88.71
13713;DHT22;6928;50.546;7.120;2023-03-14T15:02:33;4.59;89.11
13713;DHT22;6928;50.546;7.120;2023-03-14T15:05:04;4.42;89.03
13713;DHT22;6928;50.546;7.120;2023-03-14T15:07:31;4.18;89.02
13713;DHT22;6928;50.546;7.120;2023-03-14T15:09:58;4.38;89.29
13713;DHT22;6928;50.546;7.120;2023-03-14T15:12:25;4.39;89.97
13713;DHT22;6928;50.546;7.120;2023-03-14T15:14:51;4.41;89.65
13713;DHT22;6928;50.546;7.120;2023-03-14T15:17:19;4.22;89.11
13713;DHT22;6928;50.546;7.120;2023-03-14T15:19:46;4.62;90.16
13713;DHT22;6928;50.546;7.120;2023-03-14T15:22:14;4.31;89.44
13713;DHT22;6928;50.546;7.120;2023-03-14T15:24:41;4.39;88.65
13713;DHT22;6928;50.546;7.120;2023-03-14T15:27:13;4.38;89.45
13713;DHT22;6928;50.546;7.120;2023-03-14T15:29:40;4.29;89.88
13713;DHT22;6928;50.546;7.120;2023-03-14T15:32:11;4.48;89.90
13713;DHT22;6928;50.546;7.120;2023-03-14T15:34:37;4.35;90.20
13713;DHT22;6928;50.546;7.120;2023-03-14T15:37:04;4.22;90.03
13713;DHT22;6928;50.546;7.120;2023-03-14T15:39:34;4.24;89.45
13713;DHT22;6928;50.546;7.120;2023-03-14T15:42:01;4.42;90.10
13713;DHT22;6928;50.546;7.120;2023-03-14T15:44:28;4.51;89.84
13713;DHT22;6928;50.546;7.120;2023-03-14T15:46:55;4.36;89.49
13713;DHT22;6928;50.546;7.120;2023-03-14T15:49:21;4.33;89.81
13713;DHT22;6928;50.546;7.120;2023-03-14T15:51:48;4.26;90.43
13713;DHT22;6928;50.546;7.120;2023-03-14T15:54:15;4.26;90.41
13713;DHT22;6928;50.546;7.120;2023-03-14T15:56:43;4.25;90.34
13713;DHT22;6928;50.546;7.120;2023-03-14T15:59:10;4.35;90.55
13713;DHT22;6928;50.546;7.120;2023-03-14T16:01:36;4.18;90.13
13713;DHT22;6928;50.546;7.120;2023-03-14T16:04:03;4.18;90.08
13713;DHT22;6928;50.546;7.120;2023-03-14T16:06:30;4.14;89.49
13713;DHT22;6928;50.546;7.120;2023-03-14T16:08:57;4.08;89.64
13713;DHT22;6928;50.546;7.120;2023-03-14T16:11:25;4.15;89.51
13713;DHT22;6928;50.546;7.120;2023-03-14T16:13:53;4.26;89.68
13713;DHT22;6928;50.546;7.120;2023-03-14T16:16:19;4.26;89.90
13713;DHT22;6928;50.546;7.120;2023-03-14T16:18:46;4.21;89.35